createdAt,value
2018-06-25T00:02:10.509Z,83.30
2018-06-25T00:04:38.741Z,84.80
2018-06-25T00:07:06.960Z,86.20
2018-06-25T00:09:35.157Z,85.20
2018-06-25T00:12:03.445Z,85.20
2018-06-25T00:14:31.624Z,85.20
2018-06-25T00:17:00.457Z,85.60
2018-06-25T00:19:28.653Z,86.00
2018-06-25T00:21:56.867Z,86.90
2018-06-25T00:24:25.037Z,87.00
2018-06-25T00:26:53.321Z,86.50
2018-06-25T00:29:21.497Z,86.30
2018-06-25T00:31:49.729Z,86.70
2018-06-25T00:34:17.954Z,87.00
2018-06-25T00:36:46.168Z,87.10
2018-06-25T00:39:14.393Z,87.10
2018-06-25T00:41:42.574Z,86.20
2018-06-25T00:44:10.806Z,86.20
2018-06-25T00:46:39.015Z,86.80
2018-06-25T00:49:07.200Z,86.70
2018-06-25T00:51:35.389Z,86.40
2018-06-25T00:54:03.843Z,86.80
2018-06-25T00:56:32.008Z,87.10
2018-06-25T00:59:11.153Z,87.10
2018-06-25T01:01:39.370Z,87.50
2018-06-25T01:04:07.613Z,87.20
2018-06-25T01:06:35.792Z,87.00
2018-06-25T01:09:06.430Z,86.20
2018-06-25T01:11:34.649Z,86.40
2018-06-25T01:14:02.885Z,87.10
2018-06-25T01:16:31.056Z,87.70
2018-06-25T01:18:59.256Z,88.00
2018-06-25T01:21:27.441Z,88.00
2018-06-25T01:23:55.661Z,88.30
2018-06-25T01:26:23.941Z,89.80
2018-06-25T01:28:52.248Z,89.50
2018-06-25T01:31:20.432Z,88.50
2018-06-25T01:33:48.636Z,88.30
2018-06-25T01:36:16.809Z,89.90
2018-06-25T01:38:45.009Z,89.30
2018-06-25T01:41:13.181Z,89.10
2018-06-25T01:43:41.374Z,90.30
2018-06-25T01:46:09.580Z,89.40
2018-06-25T01:48:37.789Z,89.90
2018-06-25T01:51:05.982Z,89.00
2018-06-25T01:53:35.076Z,88.70
2018-06-25T01:56:03.312Z,88.70
2018-06-25T01:58:31.524Z,89.30
2018-06-25T02:00:59.745Z,89.40
2018-06-25T02:03:27.984Z,89.60
2018-06-25T02:05:56.192Z,89.90
2018-06-25T02:08:24.376Z,89.90
2018-06-25T02:10:52.641Z,90.70
2018-06-25T02:13:20.825Z,90.80
2018-06-25T02:15:49.045Z,91.10
2018-06-25T02:18:17.213Z,91.80
2018-06-25T02:20:45.416Z,91.40
2018-06-25T02:23:13.594Z,91.70
2018-06-25T02:25:41.784Z,91.20
2018-06-25T02:28:09.989Z,92.10
2018-06-25T02:30:38.205Z,92.00
2018-06-25T02:33:06.423Z,91.50
2018-06-25T02:35:34.704Z,90.80
2018-06-25T02:38:02.884Z,90.50
2018-06-25T02:40:31.107Z,90.80
2018-06-25T02:42:59.261Z,90.80
2018-06-25T02:45:27.468Z,91.10
2018-06-25T02:47:55.633Z,91.50
2018-06-25T02:50:23.899Z,91.40
2018-06-25T02:52:52.092Z,92.00
2018-06-25T02:55:20.322Z,92.70
2018-06-25T02:57:48.517Z,92.80
2018-06-25T03:00:16.782Z,92.90
2018-06-25T03:02:44.961Z,93.10
2018-06-25T03:05:13.157Z,93.20
2018-06-25T03:07:41.337Z,92.90
2018-06-25T03:11:04.405Z,93.20
2018-06-25T03:13:32.577Z,93.20
2018-06-25T03:16:00.832Z,93.10
2018-06-25T03:18:29.012Z,93.60
2018-06-25T03:20:57.264Z,92.90
2018-06-25T03:23:25.485Z,93.10
2018-06-25T03:25:53.681Z,93.10
2018-06-25T03:28:21.892Z,93.00
2018-06-25T03:30:50.155Z,93.90
2018-06-25T03:33:18.333Z,93.50
2018-06-25T03:35:46.528Z,94.50
2018-06-25T03:38:14.702Z,95.70
2018-06-25T03:40:42.896Z,96.60
2018-06-25T03:43:11.118Z,95.80
2018-06-25T03:45:39.325Z,96.90
2018-06-25T03:48:07.488Z,97.20
2018-06-25T03:50:35.696Z,96.30
2018-06-25T03:53:03.955Z,95.70
2018-06-25T03:55:32.174Z,95.80
2018-06-25T03:58:00.345Z,95.90
2018-06-25T04:00:28.589Z,94.90
2018-06-25T04:02:56.815Z,95.80
2018-06-25T04:05:24.997Z,94.60
2018-06-25T04:07:53.208Z,95.50
2018-06-25T04:10:21.392Z,95.20
2018-06-25T04:12:49.628Z,95.20
2018-06-25T04:15:17.844Z,94.80
2018-06-25T04:17:46.064Z,95.00
2018-06-25T04:20:14.241Z,95.80
2018-06-25T04:22:42.459Z,95.10
2018-06-25T04:25:10.629Z,95.50
2018-06-25T04:27:38.837Z,94.30
2018-06-25T04:30:07.073Z,95.00
2018-06-25T04:32:35.293Z,93.10
2018-06-25T04:35:03.484Z,93.00
2018-06-25T04:37:31.696Z,92.40
2018-06-25T04:39:59.877Z,93.00
2018-06-25T04:42:28.103Z,92.30
2018-06-25T04:44:56.284Z,92.00
2018-06-25T04:47:24.777Z,92.00
2018-06-25T04:49:52.953Z,92.50
2018-06-25T04:52:21.157Z,92.80
2018-06-25T04:54:49.317Z,93.00
2018-06-25T04:57:17.524Z,92.00
2018-06-25T04:59:45.773Z,92.30
2018-06-25T05:02:13.968Z,92.50
2018-06-25T05:04:42.237Z,93.20
2018-06-25T05:07:10.471Z,93.10
2018-06-25T05:09:38.665Z,92.40
2018-06-25T05:12:06.944Z,92.00
2018-06-25T05:14:35.220Z,91.20
2018-06-25T05:17:03.454Z,92.00
2018-06-25T05:19:31.616Z,90.30
2018-06-25T05:21:59.820Z,90.80
2018-06-25T05:24:28.037Z,91.20
2018-06-25T05:26:56.224Z,90.00
2018-06-25T05:29:24.436Z,90.00
2018-06-25T05:31:52.819Z,89.30
2018-06-25T05:34:21.044Z,88.40
2018-06-25T05:36:49.245Z,87.90
2018-06-25T05:39:17.441Z,87.40
2018-06-25T05:41:45.622Z,89.70
2018-06-25T05:44:13.983Z,89.50
2018-06-25T05:46:42.203Z,85.30
2018-06-25T05:49:10.439Z,85.10
2018-06-25T05:51:38.650Z,84.80
2018-06-25T05:54:06.921Z,85.00
2018-06-25T05:56:35.140Z,86.00
2018-06-25T05:59:03.518Z,86.60
2018-06-25T06:01:31.787Z,85.40
2018-06-25T06:04:00.273Z,85.80
2018-06-25T06:06:28.549Z,86.00
2018-06-25T06:08:56.790Z,86.00
2018-06-25T06:11:25.021Z,86.70
2018-06-25T06:13:53.289Z,86.30
2018-06-25T06:16:21.485Z,84.70
2018-06-25T06:18:49.723Z,85.10
2018-06-25T06:21:17.973Z,84.90
2018-06-25T06:23:46.252Z,84.60
2018-06-25T06:26:14.484Z,84.90
2018-06-25T06:28:42.761Z,84.80
2018-06-25T06:31:11.002Z,85.30
2018-06-25T06:33:39.233Z,86.00
2018-06-25T06:36:07.445Z,86.70
2018-06-25T06:38:35.730Z,86.30
2018-06-25T06:41:03.962Z,86.00
2018-06-25T06:43:32.195Z,84.90
2018-06-25T06:46:00.402Z,83.50
2018-06-25T06:48:28.756Z,83.40
2018-06-25T06:50:56.997Z,83.10
2018-06-25T06:53:25.204Z,82.70
2018-06-25T06:55:53.428Z,82.90
2018-06-25T06:58:21.621Z,83.40
2018-06-25T07:00:49.884Z,83.10
2018-06-25T07:03:18.093Z,82.10
2018-06-25T07:05:46.389Z,81.30
2018-06-25T07:08:14.633Z,80.80
2018-06-25T07:10:43.133Z,79.70
2018-06-25T07:13:11.330Z,80.70
2018-06-25T07:15:39.776Z,82.60
2018-06-25T07:18:08.042Z,81.60
2018-06-25T07:20:36.347Z,81.80
2018-06-25T07:23:04.930Z,78.80
2018-06-25T07:25:33.174Z,80.60
2018-06-25T07:28:01.366Z,81.10
2018-06-25T07:30:29.697Z,79.60
2018-06-25T07:32:57.913Z,80.00
2018-06-25T07:35:26.161Z,79.60
2018-06-25T07:37:54.365Z,79.00
2018-06-25T07:40:22.622Z,78.00
2018-06-25T07:42:50.858Z,77.60
2018-06-25T07:45:19.103Z,76.90
2018-06-25T07:47:47.297Z,75.00
2018-06-25T07:50:16.086Z,74.60
2018-06-25T07:52:44.587Z,75.30
2018-06-25T07:55:12.829Z,76.80
2018-06-25T07:57:41.038Z,75.30
2018-06-25T08:00:09.350Z,73.90
2018-06-25T08:02:37.569Z,73.30
2018-06-25T08:05:05.923Z,71.20
2018-06-25T08:07:34.244Z,73.10
2018-06-25T08:10:02.599Z,71.70
2018-06-25T08:12:30.822Z,72.20
2018-06-25T08:14:59.062Z,69.80
2018-06-25T08:17:27.360Z,70.70
2018-06-25T08:19:55.662Z,70.00
2018-06-25T08:22:23.889Z,71.10
2018-06-25T08:24:52.068Z,71.40
2018-06-25T08:27:20.323Z,72.00
2018-06-25T08:29:48.495Z,73.90
2018-06-25T08:32:16.769Z,75.50
2018-06-25T08:34:44.960Z,76.10
2018-06-25T08:37:13.206Z,77.90
2018-06-25T08:39:41.413Z,77.90
2018-06-25T08:42:09.707Z,76.90
2018-06-25T08:44:37.911Z,77.20
2018-06-25T08:47:06.332Z,77.00
2018-06-25T08:49:34.546Z,77.90
2018-06-25T08:52:02.888Z,77.90
2018-06-25T08:54:31.341Z,77.60
2018-06-25T08:56:59.663Z,78.20
2018-06-25T08:59:28.419Z,77.30
2018-06-25T09:01:56.717Z,75.30
2018-06-25T09:04:24.996Z,72.80
2018-06-25T09:06:53.362Z,73.80
2018-06-25T09:09:21.618Z,73.80
2018-06-25T09:11:49.981Z,73.30
2018-06-25T09:14:18.212Z,71.40
2018-06-25T09:16:46.452Z,71.50
2018-06-25T09:19:14.675Z,71.70
2018-06-25T09:21:42.918Z,72.60
2018-06-25T09:24:11.214Z,72.80
2018-06-25T09:26:40.251Z,73.50
2018-06-25T09:29:09.314Z,74.30
2018-06-25T09:31:37.557Z,74.70
2018-06-25T09:34:11.174Z,76.20
2018-06-25T09:36:40.271Z,75.50
2018-06-25T09:39:10.507Z,74.90
2018-06-25T09:41:38.931Z,74.10
2018-06-25T09:44:07.586Z,73.70
2018-06-25T09:46:35.914Z,73.50
2018-06-25T09:49:04.205Z,72.10
2018-06-25T09:51:32.450Z,72.70
2018-06-25T09:54:00.710Z,72.70
2018-06-25T09:56:28.990Z,71.60
2018-06-25T09:58:57.331Z,71.70
2018-06-25T10:01:25.537Z,69.30
2018-06-25T10:03:53.962Z,71.40
2018-06-25T10:06:22.177Z,70.70
2018-06-25T10:08:50.476Z,69.50
2018-06-25T10:11:18.705Z,69.50
2018-06-25T10:13:47.024Z,70.80
2018-06-25T10:16:15.262Z,71.00
2018-06-25T10:18:43.613Z,70.70
2018-06-25T10:21:11.928Z,72.70
2018-06-25T10:23:40.177Z,71.60
2018-06-25T10:26:08.488Z,71.50
2018-06-25T10:28:37.172Z,71.60
2018-06-25T10:31:05.586Z,72.20
2018-06-25T10:33:33.825Z,70.70
2018-06-25T10:36:02.042Z,70.20
2018-06-25T10:38:30.639Z,68.30
2018-06-25T10:40:58.872Z,68.80
2018-06-25T10:43:27.081Z,66.90
2018-06-25T10:45:55.239Z,70.10
2018-06-25T10:48:23.506Z,70.50
2018-06-25T10:50:51.921Z,70.90
2018-06-25T10:53:20.161Z,70.60
2018-06-25T10:55:48.406Z,68.80
2018-06-25T10:58:16.704Z,66.60
2018-06-25T11:00:44.904Z,66.30
2018-06-25T11:03:13.100Z,67.30
2018-06-25T11:05:41.277Z,67.70
2018-06-25T11:08:09.455Z,67.80
2018-06-25T11:10:37.763Z,68.40
2018-06-25T11:13:06.149Z,68.50
2018-06-25T11:15:34.401Z,69.00
2018-06-25T11:18:02.642Z,68.40
2018-06-25T11:20:30.861Z,69.30
2018-06-25T11:22:59.067Z,68.30
2018-06-25T11:25:27.300Z,68.40
2018-06-25T11:27:55.557Z,67.00
2018-06-25T11:30:23.800Z,65.20
2018-06-25T11:32:52.040Z,66.90
2018-06-25T11:35:20.282Z,66.50
2018-06-25T11:37:48.481Z,67.40
2018-06-25T11:40:16.710Z,68.20
2018-06-25T11:42:44.885Z,68.90
2018-06-25T11:45:13.170Z,68.10
2018-06-25T11:47:43.055Z,67.10
2018-06-25T11:50:11.284Z,66.20
2018-06-25T11:52:39.739Z,68.00
2018-06-25T11:55:08.036Z,65.50
2018-06-25T11:57:36.311Z,66.60
2018-06-25T12:00:05.255Z,65.70
2018-06-25T12:02:33.505Z,66.10
2018-06-25T12:05:01.776Z,65.90
2018-06-25T12:07:30.015Z,65.40
2018-06-25T12:09:58.254Z,66.30
2018-06-25T12:12:26.467Z,63.90
2018-06-25T12:14:54.792Z,64.60
2018-06-25T12:17:23.221Z,66.20
2018-06-25T12:19:55.433Z,63.80
2018-06-25T12:22:23.625Z,64.90
2018-06-25T12:24:51.876Z,65.90
2018-06-25T12:27:20.146Z,66.40
2018-06-25T12:29:48.355Z,67.20
2018-06-25T12:32:16.588Z,67.20
2018-06-25T12:34:44.838Z,67.20
2018-06-25T12:37:13.085Z,65.70
2018-06-25T12:39:41.300Z,64.40
2018-06-25T12:42:09.664Z,66.90
2018-06-25T12:44:37.910Z,65.90
2018-06-25T12:47:06.185Z,66.90
2018-06-25T12:49:34.381Z,67.50
2018-06-25T12:54:30.893Z,69.20
2018-06-25T12:56:59.290Z,69.60
2018-06-25T12:59:27.587Z,69.40
2018-06-25T13:01:55.913Z,67.90
2018-06-25T13:04:24.330Z,67.70
2018-06-25T13:06:52.680Z,67.90
2018-06-25T13:09:20.889Z,67.40
2018-06-25T13:11:49.172Z,69.30
2018-06-25T13:14:17.461Z,69.00
2018-06-25T13:16:46.158Z,70.30
2018-06-25T13:19:14.346Z,70.20
2018-06-25T13:24:10.563Z,71.10
2018-06-25T13:26:38.825Z,70.90
2018-06-25T13:29:07.187Z,70.30
2018-06-25T13:31:35.463Z,69.90
2018-06-25T13:36:31.713Z,69.40
2018-06-25T13:38:59.965Z,69.70
2018-06-25T13:41:28.277Z,68.40
2018-06-25T13:43:56.485Z,68.60
2018-06-25T13:46:24.731Z,68.40
2018-06-25T13:48:52.942Z,67.70
2018-06-25T13:51:21.180Z,68.00
2018-06-25T13:53:49.405Z,68.20
2018-06-25T13:56:17.721Z,67.60
2018-06-25T13:58:46.000Z,67.60
2018-06-25T14:01:14.238Z,66.30
2018-06-25T14:03:42.960Z,64.90
2018-06-25T14:06:11.134Z,64.10
2018-06-25T14:08:39.371Z,63.20
2018-06-25T14:11:07.726Z,63.70
2018-06-25T14:13:35.962Z,61.80
2018-06-25T14:16:04.225Z,61.00
2018-06-25T14:18:32.549Z,59.90
2018-06-25T14:21:00.818Z,60.60
2018-06-25T14:23:29.092Z,59.80
2018-06-25T14:26:02.884Z,59.20
2018-06-25T14:28:32.395Z,59.80
2018-06-25T14:31:06.402Z,60.60
2018-06-25T14:33:42.985Z,59.50
2018-06-25T14:36:11.234Z,59.90
2018-06-25T14:38:39.486Z,60.10
2018-06-25T14:41:07.751Z,61.60
2018-06-25T14:43:35.986Z,62.40
2018-06-25T14:46:04.999Z,61.60
2018-06-25T14:48:33.309Z,60.60
2018-06-25T14:51:01.986Z,62.70
2018-06-25T14:53:30.246Z,63.80
2018-06-25T14:55:58.494Z,63.20
2018-06-25T14:58:26.943Z,63.20
2018-06-25T15:00:55.181Z,63.40
2018-06-25T15:03:23.425Z,64.70
2018-06-25T15:08:19.622Z,64.60
2018-06-25T15:10:47.825Z,63.70
2018-06-25T15:13:16.094Z,64.70
2018-06-25T15:15:44.279Z,65.10
2018-06-25T15:18:12.506Z,65.40
2018-06-25T15:20:40.879Z,65.90
2018-06-25T15:23:09.154Z,64.80
2018-06-25T15:25:37.477Z,65.60
2018-06-25T15:28:05.789Z,65.20
2018-06-25T15:30:34.073Z,66.00
2018-06-25T15:33:02.274Z,66.70
2018-06-25T15:35:30.516Z,66.00
2018-06-25T15:37:58.724Z,66.40
2018-06-25T15:40:27.025Z,65.20
2018-06-25T15:42:55.234Z,65.30
2018-06-25T15:45:23.441Z,66.30
2018-06-25T15:47:51.625Z,65.70
2018-06-25T15:50:19.829Z,66.50
2018-06-25T15:52:47.991Z,66.30
2018-06-25T15:55:16.193Z,65.40
2018-06-25T15:57:44.396Z,66.30
2018-06-25T16:00:12.768Z,67.50
2018-06-25T16:02:41.017Z,66.70
2018-06-25T16:05:09.205Z,66.60
2018-06-25T16:07:37.361Z,66.00
2018-06-25T16:10:05.804Z,64.60
2018-06-25T16:12:33.977Z,65.00
2018-06-25T16:15:02.181Z,64.90
2018-06-25T16:17:30.344Z,65.00
2018-06-25T16:19:58.568Z,65.00
2018-06-25T16:22:29.626Z,64.70
2018-06-25T16:24:57.840Z,64.30
2018-06-25T16:27:26.061Z,64.80
2018-06-25T16:29:54.396Z,64.90
2018-06-25T16:32:22.605Z,65.40
2018-06-25T16:34:50.814Z,65.30
2018-06-25T16:37:19.013Z,65.20
2018-06-25T16:39:47.214Z,65.40
2018-06-25T16:42:15.416Z,66.00
2018-06-25T16:44:43.665Z,64.50
2018-06-25T16:47:11.812Z,64.40
2018-06-25T16:49:39.970Z,64.00
2018-06-25T16:52:08.289Z,64.40
2018-06-25T16:54:36.495Z,65.30
2018-06-25T16:57:04.836Z,65.10
2018-06-25T16:59:33.068Z,64.80
2018-06-25T17:02:01.272Z,64.60
2018-06-25T17:04:29.453Z,65.40
2018-06-25T17:06:57.693Z,65.90
2018-06-25T17:09:25.853Z,65.90
2018-06-25T17:11:54.051Z,66.50
2018-06-25T17:14:22.225Z,67.80
2018-06-25T17:16:50.489Z,68.40
2018-06-25T17:19:18.676Z,67.80
2018-06-25T17:21:46.870Z,67.90
2018-06-25T17:24:15.077Z,67.20
2018-06-25T17:26:43.312Z,68.30
2018-06-25T17:29:11.572Z,67.70
2018-06-25T17:31:40.857Z,68.20
2018-06-25T17:34:09.110Z,67.80
2018-06-25T17:36:37.746Z,68.70
2018-06-25T17:39:07.461Z,69.00
2018-06-25T17:41:35.708Z,69.70
2018-06-25T17:44:04.017Z,70.10
2018-06-25T17:46:32.404Z,70.30
2018-06-25T17:49:00.597Z,71.10
2018-06-25T17:51:28.857Z,71.00
2018-06-25T17:53:57.029Z,71.10
2018-06-25T17:56:25.256Z,71.30
2018-06-25T17:58:53.567Z,71.30
2018-06-25T18:01:21.824Z,71.80
2018-06-25T18:03:50.168Z,72.20
2018-06-25T18:06:18.472Z,71.80
2018-06-25T18:08:46.782Z,72.20
2018-06-25T18:11:15.055Z,72.10
2018-06-25T18:13:44.629Z,72.00
2018-06-25T18:16:12.876Z,72.80
2018-06-25T18:18:41.185Z,72.10
2018-06-25T18:21:09.456Z,73.00
2018-06-25T18:23:38.265Z,73.20
2018-06-25T18:26:06.493Z,73.50
2018-06-25T18:28:34.988Z,73.80
2018-06-25T18:31:03.238Z,73.50
2018-06-25T18:33:31.461Z,73.90
2018-06-25T18:35:59.713Z,74.10
2018-06-25T18:38:28.365Z,74.60
2018-06-25T18:40:56.945Z,74.80
2018-06-25T18:43:25.164Z,75.00
2018-06-25T18:45:53.340Z,74.90
2018-06-25T18:48:21.974Z,74.70
2018-06-25T18:50:50.203Z,74.10
2018-06-25T18:53:18.430Z,75.00
2018-06-25T18:55:46.698Z,75.70
2018-06-25T19:00:42.891Z,75.20
2018-06-25T19:03:11.714Z,75.80
2018-06-25T19:05:40.108Z,76.20
2018-06-25T19:08:08.354Z,76.50
2018-06-25T19:10:36.584Z,76.70
2018-06-25T19:13:05.074Z,77.50
2018-06-25T19:15:33.265Z,77.50
2018-06-25T19:18:01.523Z,78.30
2018-06-25T19:20:29.738Z,78.60
2018-06-25T19:22:57.989Z,78.70
2018-06-25T19:25:26.934Z,79.10
2018-06-25T19:27:55.178Z,78.70
2018-06-25T19:30:23.387Z,79.10
2018-06-25T19:32:51.833Z,79.50
2018-06-25T19:35:20.317Z,79.80
2018-06-25T19:37:49.437Z,80.30
2018-06-25T19:40:17.869Z,80.30
2018-06-25T19:42:48.026Z,79.80
2018-06-25T19:45:16.569Z,79.80
2018-06-25T19:47:44.749Z,79.80
2018-06-25T19:50:12.977Z,80.10
2018-06-25T19:52:42.176Z,79.50
2018-06-25T19:55:10.450Z,79.80
2018-06-25T19:57:38.770Z,80.10
2018-06-25T20:00:07.089Z,80.30
2018-06-25T20:02:35.346Z,80.60
2018-06-25T20:05:03.629Z,80.10
2018-06-25T20:07:31.904Z,80.40
2018-06-25T20:10:01.097Z,80.70
2018-06-25T20:12:29.314Z,80.50
2018-06-25T20:14:57.585Z,80.80
2018-06-25T20:17:25.781Z,81.40
2018-06-25T20:19:54.863Z,81.70
2018-06-25T20:22:23.348Z,81.90
2018-06-25T20:24:51.505Z,81.50
2018-06-25T20:27:19.728Z,81.70
2018-06-25T20:29:47.965Z,81.40
2018-06-25T20:32:16.170Z,81.40
2018-06-25T20:34:44.396Z,81.10
2018-06-25T20:37:12.626Z,81.00
2018-06-25T20:39:40.944Z,81.00
2018-06-25T20:42:09.192Z,80.70
2018-06-25T20:44:37.411Z,81.00
2018-06-25T20:47:05.654Z,81.00
2018-06-25T20:49:33.889Z,81.20
2018-06-25T20:52:02.085Z,81.20
2018-06-25T20:54:30.388Z,81.50
2018-06-25T20:56:58.702Z,80.80
2018-06-25T20:59:27.513Z,81.40
2018-06-25T21:01:56.170Z,81.30
2018-06-25T21:04:24.803Z,81.50
2018-06-25T21:06:53.422Z,80.80
2018-06-25T21:09:21.735Z,80.70
2018-06-25T21:11:49.953Z,81.40
2018-06-25T21:14:18.152Z,80.90
2018-06-25T21:16:46.492Z,80.90
2018-06-25T21:19:14.817Z,80.60
2018-06-25T21:21:43.054Z,80.70
2018-06-25T21:24:11.258Z,81.00
2018-06-25T21:26:39.512Z,81.10
2018-06-25T21:29:07.690Z,81.20
2018-06-25T21:31:35.942Z,81.60
2018-06-25T21:34:04.128Z,81.50
2018-06-25T21:36:32.417Z,81.60
2018-06-25T21:39:00.607Z,81.50
2018-06-25T21:41:29.081Z,81.70
2018-06-25T21:43:57.285Z,81.70
2018-06-25T21:46:25.506Z,81.70
2018-06-25T21:48:53.682Z,81.80
2018-06-25T21:51:22.072Z,81.80
2018-06-25T21:53:50.253Z,82.00
2018-06-25T21:56:18.481Z,82.40
2018-06-25T21:58:46.666Z,83.10
2018-06-25T22:01:14.913Z,83.00
2018-06-25T22:03:43.128Z,82.90
2018-06-25T22:06:11.373Z,82.90
2018-06-25T22:08:39.581Z,83.20
2018-06-25T22:11:07.823Z,83.00
2018-06-25T22:13:36.105Z,83.10
2018-06-25T22:16:04.329Z,83.20
2018-06-25T22:18:32.509Z,83.00
2018-06-25T22:21:00.796Z,82.90
2018-06-25T22:23:29.097Z,82.80
2018-06-25T22:25:57.389Z,82.80
2018-06-25T22:28:25.653Z,82.90
2018-06-25T22:30:53.921Z,82.60
2018-06-25T22:33:22.092Z,83.00
2018-06-25T22:35:50.277Z,83.30
2018-06-25T22:38:18.504Z,83.30
2018-06-25T22:40:46.712Z,84.20
2018-06-25T22:43:14.918Z,85.20
2018-06-25T22:45:43.164Z,85.50
2018-06-25T22:48:11.417Z,85.90
2018-06-25T22:50:39.619Z,86.00
2018-06-25T22:53:07.836Z,85.80
2018-06-25T22:55:36.540Z,85.20
2018-06-25T22:58:04.754Z,85.00
2018-06-25T23:00:33.497Z,84.60
2018-06-25T23:03:01.736Z,84.70
2018-06-25T23:05:29.954Z,84.90
2018-06-25T23:07:58.189Z,85.30
2018-06-25T23:10:26.386Z,85.30
2018-06-25T23:12:54.953Z,85.10
2018-06-25T23:15:23.149Z,85.10
2018-06-25T23:17:51.501Z,84.80
2018-06-25T23:20:19.711Z,85.20
2018-06-25T23:22:54.141Z,85.80
2018-06-25T23:25:22.669Z,85.80
2018-06-25T23:27:50.918Z,87.00
2018-06-25T23:30:19.341Z,87.20
2018-06-25T23:32:47.553Z,87.70
2018-06-25T23:35:15.843Z,87.40
2018-06-25T23:37:44.078Z,87.40
2018-06-25T23:40:12.288Z,87.50
2018-06-25T23:42:40.600Z,87.50
2018-06-25T23:45:08.840Z,87.90
2018-06-25T23:47:37.072Z,87.50
2018-06-25T23:52:33.429Z,87.20
2018-06-25T23:55:01.640Z,87.00
2018-06-25T23:57:29.988Z,86.80
2018-06-25T23:59:58.177Z,86.90
